sensor_id;sensor_type;location;lat;lon;timestamp;temperature;humidity
12303;DHT22;6214;48.012;7.862;2023-12-20T00:01:55;7.70;99.90
12303;DHT22;6214;48.012;7.862;2023-12-20T00:04:22;7.70;99.90
12303;DHT22;6214;48.012;7.862;2023-12-20T00:06:49;7.70;99.90
12303;DHT22;6214;48.012;7.862;2023-12-20T00:09:16;7.70;99.90
12303;DHT22;6214;48.012;7.862;2023-12-20T00:11:43;7.70;99.90
12303;DHT22;6214;48.012;7.862;2023-12-20T00:14:10;7.70;99.90
12303;DHT22;6214;48.012;7.862;2023-12-20T00:16:37;7.70;99.90
12303;DHT22;6214;48.012;7.862;2023-12-20T00:19:03;7.70;99.90
12303;DHT22;6214;48.012;7.862;2023-12-20T00:21:30;7.70;99.90
12303;DHT22;6214;48.012;7.862;2023-12-20T00:23:57;7.70;99.90
12303;DHT22;6214;48.012;7.862;2023-12-20T00:26:23;7.70;99.90
12303;DHT22;6214;48.012;7.862;2023-12-20T00:28:50;7.70;99.90
12303;DHT22;6214;48.012;7.862;2023-12-20T00:31:17;7.60;99.90
12303;DHT22;6214;48.012;7.862;2023-12-20T00:33:44;7.70;99.90
12303;DHT22;6214;48.012;7.862;2023-12-20T00:36:13;7.70;99.90
12303;DHT22;6214;48.012;7.862;2023-12-20T00:38:39;7.70;99.90
12303;DHT22;6214;48.012;7.862;2023-12-20T00:41:06;7.70;99.90
12303;DHT22;6214;48.012;7.862;2023-12-20T00:43:33;7.70;99.90
12303;DHT22;6214;48.012;7.862;2023-12-20T00:46:00;7.80;99.90
12303;DHT22;6214;48.012;7.862;2023-12-20T00:48:26;7.60;99.90
12303;DHT22;6214;48.012;7.862;2023-12-20T00:50:53;7.50;99.90
12303;DHT22;6214;48.012;7.862;2023-12-20T00:53:20;7.40;99.90
12303;DHT22;6214;48.012;7.862;2023-12-20T00:55:47;7.30;99.90
12303;DHT22;6214;48.012;7.862;2023-12-20T00:58:14;7.20;99.90
12303;DHT22;6214;48.012;7.862;2023-12-20T01:00:42;7.10;99.90
12303;DHT22;6214;48.012;7.862;2023-12-20T01:03:10;7.10;99.90
12303;DHT22;6214;48.012;7.862;2023-12-20T01:05:37;7.00;99.90
12303;DHT22;6214;48.012;7.862;2023-12-20T01:08:04;7.00;99.90
12303;DHT22;6214;48.012;7.862;2023-12-20T01:10:31;7.00;99.90
12303;DHT22;6214;48.012;7.862;2023-12-20T01:12:58;6.90;99.90
12303;DHT22;6214;48.012;7.862;2023-12-20T01:15:25;6.90;99.90
12303;DHT22;6214;48.012;7.862;2023-12-20T01:17:51;6.80;99.90
12303;DHT22;6214;48.012;7.862;2023-12-20T01:20:18;6.80;99.90
12303;DHT22;6214;48.012;7.862;2023-12-20T01:22:47;6.80;99.90
12303;DHT22;6214;48.012;7.862;2023-12-20T01:25:13;6.80;99.90
12303;DHT22;6214;48.012;7.862;2023-12-20T01:27:40;6.70;99.90
12303;DHT22;6214;48.012;7.862;2023-12-20T01:30:08;6.70;99.90
12303;DHT22;6214;48.012;7.862;2023-12-20T01:32:34;6.60;99.90
12303;DHT22;6214;48.012;7.862;2023-12-20T01:35:01;6.70;99.90
12303;DHT22;6214;48.012;7.862;2023-12-20T01:37:29;6.60;99.90
12303;DHT22;6214;48.012;7.862;2023-12-20T01:39:56;6.60;99.90
12303;DHT22;6214;48.012;7.862;2023-12-20T01:42:23;6.60;99.90
12303;DHT22;6214;48.012;7.862;2023-12-20T01:44:50;6.60;99.90
12303;DHT22;6214;48.012;7.862;2023-12-20T01:47:16;6.60;99.90
12303;DHT22;6214;48.012;7.862;2023-12-20T01:49:43;6.60;99.90
12303;DHT22;6214;48.012;7.862;2023-12-20T01:52:10;6.60;99.90
12303;DHT22;6214;48.012;7.862;2023-12-20T01:54:40;6.60;99.90
12303;DHT22;6214;48.012;7.862;2023-12-20T01:57:07;6.60;99.90
12303;DHT22;6214;48.012;7.862;2023-12-20T01:59:34;6.50;99.90
12303;DHT22;6214;48.012;7.862;2023-12-20T02:02:03;6.50;99.90
12303;DHT22;6214;48.012;7.862;2023-12-20T02:04:30;6.50;99.90
12303;DHT22;6214;48.012;7.862;2023-12-20T02:06:58;6.50;99.90
12303;DHT22;6214;48.012;7.862;2023-12-20T02:09:26;6.50;99.90
12303;DHT22;6214;48.012;7.862;2023-12-20T02:11:54;6.50;99.90
12303;DHT22;6214;48.012;7.862;2023-12-20T02:14:21;6.40;99.90
12303;DHT22;6214;48.012;7.862;2023-12-20T02:16:48;6.50;99.90
12303;DHT22;6214;48.012;7.862;2023-12-20T02:19:15;6.50;99.90
12303;DHT22;6214;48.012;7.862;2023-12-20T02:21:44;6.50;99.90
12303;DHT22;6214;48.012;7.862;2023-12-20T02:24:10;6.50;99.90
12303;DHT22;6214;48.012;7.862;2023-12-20T02:26:37;6.40;99.90
12303;DHT22;6214;48.012;7.862;2023-12-20T02:29:04;6.50;99.90
12303;DHT22;6214;48.012;7.862;2023-12-20T02:31:31;6.50;99.90
12303;DHT22;6214;48.012;7.862;2023-12-20T02:33:59;6.40;99.90
12303;DHT22;6214;48.012;7.862;2023-12-20T02:36:26;6.40;99.90
12303;DHT22;6214;48.012;7.862;2023-12-20T02:38:53;6.40;99.90
12303;DHT22;6214;48.012;7.862;2023-12-20T02:41:19;6.40;99.90
12303;DHT22;6214;48.012;7.862;2023-12-20T02:43:47;6.40;99.90
12303;DHT22;6214;48.012;7.862;2023-12-20T02:46:16;6.40;99.90
12303;DHT22;6214;48.012;7.862;2023-12-20T02:48:43;6.50;99.90
12303;DHT22;6214;48.012;7.862;2023-12-20T02:51:10;6.40;99.90
12303;DHT22;6214;48.012;7.862;2023-12-20T02:53:37;6.40;99.90
12303;DHT22;6214;48.012;7.862;2023-12-20T02:56:04;6.40;99.90
12303;DHT22;6214;48.012;7.862;2023-12-20T02:58:31;6.40;99.90
12303;DHT22;6214;48.012;7.862;2023-12-20T03:00:57;6.40;99.90
12303;DHT22;6214;48.012;7.862;2023-12-20T03:03:24;6.40;99.90
12303;DHT22;6214;48.012;7.862;2023-12-20T03:05:51;6.50;99.90
12303;DHT22;6214;48.012;7.862;2023-12-20T03:08:18;6.30;99.90
12303;DHT22;6214;48.012;7.862;2023-12-20T03:10:45;6.30;99.90
12303;DHT22;6214;48.012;7.862;2023-12-20T03:13:11;6.30;99.90
12303;DHT22;6214;48.012;7.862;2023-12-20T03:15:38;6.30;99.90
12303;DHT22;6214;48.012;7.862;2023-12-20T03:18:05;6.30;99.90
12303;DHT22;6214;48.012;7.862;2023-12-20T03:20:32;6.30;99.90
12303;DHT22;6214;48.012;7.862;2023-12-20T03:23:00;6.20;99.90
12303;DHT22;6214;48.012;7.862;2023-12-20T03:25:27;6.20;99.90
12303;DHT22;6214;48.012;7.862;2023-12-20T03:27:54;6.30;99.90
12303;DHT22;6214;48.012;7.862;2023-12-20T03:30:21;6.30;99.90
12303;DHT22;6214;48.012;7.862;2023-12-20T03:32:48;6.20;99.90
12303;DHT22;6214;48.012;7.862;2023-12-20T03:35:15;6.20;99.90
12303;DHT22;6214;48.012;7.862;2023-12-20T03:37:41;6.20;99.90
12303;DHT22;6214;48.012;7.862;2023-12-20T03:40:09;6.20;99.90
12303;DHT22;6214;48.012;7.862;2023-12-20T03:42:36;6.20;99.90
12303;DHT22;6214;48.012;7.862;2023-12-20T03:45:03;6.20;99.90
12303;DHT22;6214;48.012;7.862;2023-12-20T03:47:30;6.20;99.90
12303;DHT22;6214;48.012;7.862;2023-12-20T03:49:56;6.20;99.90
12303;DHT22;6214;48.012;7.862;2023-12-20T03:52:23;6.30;99.90
12303;DHT22;6214;48.012;7.862;2023-12-20T03:54:50;6.20;99.90
12303;DHT22;6214;48.012;7.862;2023-12-20T03:57:17;6.20;99.90
12303;DHT22;6214;48.012;7.862;2023-12-20T03:59:44;6.20;99.90
12303;DHT22;6214;48.012;7.862;2023-12-20T04:02:10;6.20;99.90
12303;DHT22;6214;48.012;7.862;2023-12-20T04:04:37;6.20;99.90
12303;DHT22;6214;48.012;7.862;2023-12-20T04:07:04;6.20;99.90
12303;DHT22;6214;48.012;7.862;2023-12-20T04:09:31;6.20;99.90
12303;DHT22;6214;48.012;7.862;2023-12-20T04:11:57;6.30;99.90
12303;DHT22;6214;48.012;7.862;2023-12-20T04:14:24;6.20;99.90
12303;DHT22;6214;48.012;7.862;2023-12-20T04:16:52;6.20;99.90
12303;DHT22;6214;48.012;7.862;2023-12-20T04:19:19;6.20;99.90
12303;DHT22;6214;48.012;7.862;2023-12-20T04:21:46;6.30;99.90
12303;DHT22;6214;48.012;7.862;2023-12-20T04:24:12;6.20;99.90
12303;DHT22;6214;48.012;7.862;2023-12-20T04:26:39;6.30;99.90
12303;DHT22;6214;48.012;7.862;2023-12-20T04:29:06;6.30;99.90
12303;DHT22;6214;48.012;7.862;2023-12-20T04:31:33;6.30;99.90
12303;DHT22;6214;48.012;7.862;2023-12-20T04:34:00;6.30;99.90
12303;DHT22;6214;48.012;7.862;2023-12-20T04:36:27;6.30;99.90
12303;DHT22;6214;48.012;7.862;2023-12-20T04:38:56;6.30;99.90
12303;DHT22;6214;48.012;7.862;2023-12-20T04:41:23;6.30;99.90
12303;DHT22;6214;48.012;7.862;2023-12-20T04:43:49;6.30;99.90
12303;DHT22;6214;48.012;7.862;2023-12-20T04:46:16;6.40;99.90
12303;DHT22;6214;48.012;7.862;2023-12-20T04:48:43;6.40;99.90
12303;DHT22;6214;48.012;7.862;2023-12-20T04:51:10;6.40;99.90
12303;DHT22;6214;48.012;7.862;2023-12-20T04:53:36;6.40;99.90
12303;DHT22;6214;48.012;7.862;2023-12-20T04:56:03;6.40;99.90
12303;DHT22;6214;48.012;7.862;2023-12-20T04:58:30;6.40;99.90
12303;DHT22;6214;48.012;7.862;2023-12-20T05:00:57;6.40;99.90
12303;DHT22;6214;48.012;7.862;2023-12-20T05:03:24;6.50;99.90
12303;DHT22;6214;48.012;7.862;2023-12-20T05:05:50;6.40;99.90
12303;DHT22;6214;48.012;7.862;2023-12-20T05:08:17;6.40;99.90
12303;DHT22;6214;48.012;7.862;2023-12-20T05:10:44;6.40;99.90
12303;DHT22;6214;48.012;7.862;2023-12-20T05:13:11;6.40;99.90
12303;DHT22;6214;48.012;7.862;2023-12-20T05:15:38;6.40;99.90
12303;DHT22;6214;48.012;7.862;2023-12-20T05:18:05;6.40;99.90
12303;DHT22;6214;48.012;7.862;2023-12-20T05:20:31;6.40;99.90
12303;DHT22;6214;48.012;7.862;2023-12-20T05:22:58;6.40;99.90
12303;DHT22;6214;48.012;7.862;2023-12-20T05:25:25;6.40;99.90
12303;DHT22;6214;48.012;7.862;2023-12-20T05:27:52;6.40;99.90
12303;DHT22;6214;48.012;7.862;2023-12-20T05:30:18;6.50;99.90
12303;DHT22;6214;48.012;7.862;2023-12-20T05:32:45;6.50;99.90
12303;DHT22;6214;48.012;7.862;2023-12-20T05:35:12;6.50;99.90
12303;DHT22;6214;48.012;7.862;2023-12-20T05:37:39;6.50;99.90
12303;DHT22;6214;48.012;7.862;2023-12-20T05:40:06;6.40;99.90
12303;DHT22;6214;48.012;7.862;2023-12-20T05:42:37;6.50;99.90
12303;DHT22;6214;48.012;7.862;2023-12-20T05:45:07;6.50;99.90
12303;DHT22;6214;48.012;7.862;2023-12-20T05:47:33;6.50;99.90
12303;DHT22;6214;48.012;7.862;2023-12-20T05:50:00;6.50;99.90
12303;DHT22;6214;48.012;7.862;2023-12-20T05:52:27;6.40;99.90
12303;DHT22;6214;48.012;7.862;2023-12-20T05:54:54;6.50;99.90
12303;DHT22;6214;48.012;7.862;2023-12-20T05:57:22;6.50;99.90
12303;DHT22;6214;48.012;7.862;2023-12-20T05:59:50;6.50;99.90
12303;DHT22;6214;48.012;7.862;2023-12-20T06:02:16;6.50;99.90
12303;DHT22;6214;48.012;7.862;2023-12-20T06:04:43;6.60;99.90
12303;DHT22;6214;48.012;7.862;2023-12-20T06:07:14;6.50;99.90
12303;DHT22;6214;48.012;7.862;2023-12-20T06:09:41;6.60;99.90
12303;DHT22;6214;48.012;7.862;2023-12-20T06:12:08;6.60;99.90
12303;DHT22;6214;48.012;7.862;2023-12-20T06:14:35;6.70;99.90
12303;DHT22;6214;48.012;7.862;2023-12-20T06:17:02;6.70;99.90
12303;DHT22;6214;48.012;7.862;2023-12-20T06:19:29;6.70;99.90
12303;DHT22;6214;48.012;7.862;2023-12-20T06:21:55;6.70;99.90
12303;DHT22;6214;48.012;7.862;2023-12-20T06:24:22;6.70;99.90
12303;DHT22;6214;48.012;7.862;2023-12-20T06:26:49;6.70;99.90
12303;DHT22;6214;48.012;7.862;2023-12-20T06:29:16;6.70;99.90
12303;DHT22;6214;48.012;7.862;2023-12-20T06:31:43;6.80;99.90
12303;DHT22;6214;48.012;7.862;2023-12-20T06:34:10;6.80;99.90
12303;DHT22;6214;48.012;7.862;2023-12-20T06:36:37;6.80;99.90
12303;DHT22;6214;48.012;7.862;2023-12-20T06:39:03;6.80;99.90
12303;DHT22;6214;48.012;7.862;2023-12-20T06:41:31;6.80;99.90
12303;DHT22;6214;48.012;7.862;2023-12-20T06:43:58;6.90;99.90
12303;DHT22;6214;48.012;7.862;2023-12-20T06:46:25;6.80;99.90
12303;DHT22;6214;48.012;7.862;2023-12-20T06:48:51;6.90;99.90
12303;DHT22;6214;48.012;7.862;2023-12-20T06:51:18;6.80;99.90
12303;DHT22;6214;48.012;7.862;2023-12-20T06:53:46;6.80;99.90
12303;DHT22;6214;48.012;7.862;2023-12-20T06:56:13;6.80;99.90
12303;DHT22;6214;48.012;7.862;2023-12-20T06:58:44;6.70;99.90
12303;DHT22;6214;48.012;7.862;2023-12-20T07:01:15;6.70;99.90
12303;DHT22;6214;48.012;7.862;2023-12-20T07:03:42;6.60;99.90
12303;DHT22;6214;48.012;7.862;2023-12-20T07:06:09;6.70;99.90
12303;DHT22;6214;48.012;7.862;2023-12-20T07:08:36;6.70;99.90
12303;DHT22;6214;48.012;7.862;2023-12-20T07:11:02;6.60;99.90
12303;DHT22;6214;48.012;7.862;2023-12-20T07:13:30;6.60;99.90
12303;DHT22;6214;48.012;7.862;2023-12-20T07:15:56;6.50;99.90
12303;DHT22;6214;48.012;7.862;2023-12-20T07:18:23;6.70;99.90
12303;DHT22;6214;48.012;7.862;2023-12-20T07:20:50;6.60;99.90
12303;DHT22;6214;48.012;7.862;2023-12-20T07:23:17;6.60;99.90
12303;DHT22;6214;48.012;7.862;2023-12-20T07:25:46;6.60;99.90
12303;DHT22;6214;48.012;7.862;2023-12-20T07:28:12;6.70;99.90
12303;DHT22;6214;48.012;7.862;2023-12-20T07:30:39;6.60;99.90
12303;DHT22;6214;48.012;7.862;2023-12-20T07:33:06;6.60;99.90
12303;DHT22;6214;48.012;7.862;2023-12-20T07:35:35;6.60;99.90
12303;DHT22;6214;48.012;7.862;2023-12-20T07:38:02;6.70;99.90
12303;DHT22;6214;48.012;7.862;2023-12-20T07:40:29;6.80;99.90
12303;DHT22;6214;48.012;7.862;2023-12-20T07:42:56;6.80;99.90
12303;DHT22;6214;48.012;7.862;2023-12-20T07:45:23;6.80;99.90
12303;DHT22;6214;48.012;7.862;2023-12-20T07:47:50;6.80;99.90
12303;DHT22;6214;48.012;7.862;2023-12-20T07:50:17;6.80;99.90
12303;DHT22;6214;48.012;7.862;2023-12-20T07:52:44;6.80;99.90
12303;DHT22;6214;48.012;7.862;2023-12-20T07:55:10;6.80;99.90
12303;DHT22;6214;48.012;7.862;2023-12-20T07:57:37;6.60;99.90
12303;DHT22;6214;48.012;7.862;2023-12-20T08:00:04;6.70;99.90
12303;DHT22;6214;48.012;7.862;2023-12-20T08:02:32;6.60;99.90
12303;DHT22;6214;48.012;7.862;2023-12-20T08:04:58;6.60;99.90
12303;DHT22;6214;48.012;7.862;2023-12-20T08:07:25;6.70;99.90
12303;DHT22;6214;48.012;7.862;2023-12-20T08:09:52;6.70;99.90
12303;DHT22;6214;48.012;7.862;2023-12-20T08:12:19;6.70;99.90
12303;DHT22;6214;48.012;7.862;2023-12-20T08:14:46;6.80;99.90
12303;DHT22;6214;48.012;7.862;2023-12-20T08:17:13;6.70;99.90
12303;DHT22;6214;48.012;7.862;2023-12-20T08:19:42;6.70;99.90
12303;DHT22;6214;48.012;7.862;2023-12-20T08:22:09;6.80;99.90
12303;DHT22;6214;48.012;7.862;2023-12-20T08:24:36;6.80;99.90
12303;DHT22;6214;48.012;7.862;2023-12-20T08:27:03;6.60;99.90
12303;DHT22;6214;48.012;7.862;2023-12-20T08:29:30;6.70;99.90
12303;DHT22;6214;48.012;7.862;2023-12-20T08:31:57;6.80;99.90
12303;DHT22;6214;48.012;7.862;2023-12-20T08:34:24;6.80;99.90
12303;DHT22;6214;48.012;7.862;2023-12-20T08:36:51;6.90;99.90
12303;DHT22;6214;48.012;7.862;2023-12-20T08:39:18;6.70;99.90
12303;DHT22;6214;48.012;7.862;2023-12-20T08:41:45;6.70;99.90
12303;DHT22;6214;48.012;7.862;2023-12-20T08:44:12;6.80;99.90
12303;DHT22;6214;48.012;7.862;2023-12-20T08:46:38;6.80;99.90
12303;DHT22;6214;48.012;7.862;2023-12-20T08:49:05;6.90;99.90
12303;DHT22;6214;48.012;7.862;2023-12-20T08:51:32;6.80;99.90
12303;DHT22;6214;48.012;7.862;2023-12-20T08:54:00;6.90;99.90
12303;DHT22;6214;48.012;7.862;2023-12-20T08:56:27;6.90;99.90
12303;DHT22;6214;48.012;7.862;2023-12-20T08:58:53;7.00;99.90
12303;DHT22;6214;48.012;7.862;2023-12-20T09:01:20;7.00;99.90
12303;DHT22;6214;48.012;7.862;2023-12-20T09:03:47;6.80;99.90
12303;DHT22;6214;48.012;7.862;2023-12-20T09:06:14;6.80;99.90
12303;DHT22;6214;48.012;7.862;2023-12-20T09:08:42;6.80;99.90
12303;DHT22;6214;48.012;7.862;2023-12-20T09:11:08;6.80;99.90
12303;DHT22;6214;48.012;7.862;2023-12-20T09:13:35;6.90;99.90
12303;DHT22;6214;48.012;7.862;2023-12-20T09:16:03;7.00;99.90
12303;DHT22;6214;48.012;7.862;2023-12-20T09:18:30;7.00;99.90
12303;DHT22;6214;48.012;7.862;2023-12-20T09:20:56;7.00;99.90
12303;DHT22;6214;48.012;7.862;2023-12-20T09:23:23;7.10;99.90
12303;DHT22;6214;48.012;7.862;2023-12-20T09:25:50;7.10;99.90
12303;DHT22;6214;48.012;7.862;2023-12-20T09:28:20;7.30;99.90
12303;DHT22;6214;48.012;7.862;2023-12-20T09:30:47;7.00;99.90
12303;DHT22;6214;48.012;7.862;2023-12-20T09:33:14;7.20;99.90
12303;DHT22;6214;48.012;7.862;2023-12-20T09:35:42;7.20;99.90
12303;DHT22;6214;48.012;7.862;2023-12-20T09:38:09;7.10;99.90
12303;DHT22;6214;48.012;7.862;2023-12-20T09:40:36;7.10;99.90
12303;DHT22;6214;48.012;7.862;2023-12-20T09:43:19;7.00;99.90
12303;DHT22;6214;48.012;7.862;2023-12-20T09:45:47;7.20;99.90
12303;DHT22;6214;48.012;7.862;2023-12-20T09:48:18;7.20;99.90
12303;DHT22;6214;48.012;7.862;2023-12-20T09:50:45;7.30;99.90
12303;DHT22;6214;48.012;7.862;2023-12-20T09:53:19;7.20;99.90
12303;DHT22;6214;48.012;7.862;2023-12-20T09:55:47;7.20;99.90
12303;DHT22;6214;48.012;7.862;2023-12-20T09:58:16;7.20;99.90
12303;DHT22;6214;48.012;7.862;2023-12-20T10:00:42;7.10;99.90
12303;DHT22;6214;48.012;7.862;2023-12-20T10:03:09;7.10;99.90
12303;DHT22;6214;48.012;7.862;2023-12-20T10:05:39;7.40;99.90
12303;DHT22;6214;48.012;7.862;2023-12-20T10:08:10;7.40;99.90
12303;DHT22;6214;48.012;7.862;2023-12-20T10:10:36;7.40;99.90
12303;DHT22;6214;48.012;7.862;2023-12-20T10:13:13;7.60;99.90
12303;DHT22;6214;48.012;7.862;2023-12-20T10:15:41;7.40;99.90
12303;DHT22;6214;48.012;7.862;2023-12-20T10:18:09;7.40;99.90
12303;DHT22;6214;48.012;7.862;2023-12-20T10:20:37;7.20;99.90
12303;DHT22;6214;48.012;7.862;2023-12-20T10:23:04;7.20;99.90
12303;DHT22;6214;48.012;7.862;2023-12-20T10:25:31;6.90;99.90
12303;DHT22;6214;48.012;7.862;2023-12-20T10:28:15;7.00;99.90
12303;DHT22;6214;48.012;7.862;2023-12-20T10:30:47;7.50;99.90
12303;DHT22;6214;48.012;7.862;2023-12-20T10:33:26;7.30;99.90
12303;DHT22;6214;48.012;7.862;2023-12-20T10:35:54;7.50;99.90
12303;DHT22;6214;48.012;7.862;2023-12-20T10:38:21;7.70;99.90
12303;DHT22;6214;48.012;7.862;2023-12-20T10:40:49;7.80;99.90
12303;DHT22;6214;48.012;7.862;2023-12-20T10:43:20;8.00;99.90
12303;DHT22;6214;48.012;7.862;2023-12-20T10:45:48;8.00;99.90
12303;DHT22;6214;48.012;7.862;2023-12-20T10:48:16;8.10;99.90
12303;DHT22;6214;48.012;7.862;2023-12-20T10:50:43;8.10;99.90
12303;DHT22;6214;48.012;7.862;2023-12-20T10:53:12;8.00;99.90
12303;DHT22;6214;48.012;7.862;2023-12-20T10:55:39;7.80;99.90
12303;DHT22;6214;48.012;7.862;2023-12-20T10:58:08;7.50;99.90
12303;DHT22;6214;48.012;7.862;2023-12-20T11:00:40;7.40;99.90
12303;DHT22;6214;48.012;7.862;2023-12-20T11:03:11;7.50;99.90
12303;DHT22;6214;48.012;7.862;2023-12-20T11:05:58;7.80;99.90
12303;DHT22;6214;48.012;7.862;2023-12-20T11:11:26;7.70;99.90
12303;DHT22;6214;48.012;7.862;2023-12-20T11:14:08;7.80;99.90
12303;DHT22;6214;48.012;7.862;2023-12-20T11:16:38;7.70;99.90
12303;DHT22;6214;48.012;7.862;2023-12-20T11:19:17;7.70;99.90
12303;DHT22;6214;48.012;7.862;2023-12-20T11:21:46;7.80;99.90
12303;DHT22;6214;48.012;7.862;2023-12-20T11:24:12;8.00;99.90
12303;DHT22;6214;48.012;7.862;2023-12-20T11:26:46;7.80;99.90
12303;DHT22;6214;48.012;7.862;2023-12-20T11:31:56;7.60;99.90
12303;DHT22;6214;48.012;7.862;2023-12-20T11:34:27;7.50;99.90
12303;DHT22;6214;48.012;7.862;2023-12-20T11:36:58;7.40;99.90
12303;DHT22;6214;48.012;7.862;2023-12-20T11:39:27;7.60;99.90
12303;DHT22;6214;48.012;7.862;2023-12-20T11:41:56;7.70;99.90
12303;DHT22;6214;48.012;7.862;2023-12-20T11:44:25;7.80;99.90
12303;DHT22;6214;48.012;7.862;2023-12-20T11:46:55;7.90;99.90
12303;DHT22;6214;48.012;7.862;2023-12-20T11:49:25;7.90;99.90
12303;DHT22;6214;48.012;7.862;2023-12-20T11:51:52;7.80;99.90
12303;DHT22;6214;48.012;7.862;2023-12-20T11:54:19;7.60;99.90
12303;DHT22;6214;48.012;7.862;2023-12-20T11:56:46;7.50;99.90
12303;DHT22;6214;48.012;7.862;2023-12-20T11:59:14;7.50;99.90
12303;DHT22;6214;48.012;7.862;2023-12-20T12:01:50;7.20;99.90
12303;DHT22;6214;48.012;7.862;2023-12-20T12:04:17;7.20;99.90
12303;DHT22;6214;48.012;7.862;2023-12-20T12:06:46;7.30;99.90
12303;DHT22;6214;48.012;7.862;2023-12-20T12:09:13;7.30;99.90
12303;DHT22;6214;48.012;7.862;2023-12-20T12:11:40;7.30;99.90
12303;DHT22;6214;48.012;7.862;2023-12-20T12:14:07;7.30;99.90
12303;DHT22;6214;48.012;7.862;2023-12-20T12:16:34;7.30;99.90
12303;DHT22;6214;48.012;7.862;2023-12-20T12:19:01;7.30;99.90
12303;DHT22;6214;48.012;7.862;2023-12-20T12:21:28;7.30;99.90
12303;DHT22;6214;48.012;7.862;2023-12-20T12:24:09;7.30;99.90
12303;DHT22;6214;48.012;7.862;2023-12-20T12:26:36;7.50;99.90
12303;DHT22;6214;48.012;7.862;2023-12-20T12:29:07;7.60;99.90
12303;DHT22;6214;48.012;7.862;2023-12-20T12:31:34;7.80;99.90
12303;DHT22;6214;48.012;7.862;2023-12-20T12:34:01;8.00;99.90
12303;DHT22;6214;48.012;7.862;2023-12-20T12:36:30;7.90;99.90
12303;DHT22;6214;48.012;7.862;2023-12-20T12:39:02;7.90;99.90
12303;DHT22;6214;48.012;7.862;2023-12-20T12:41:31;8.10;99.90
12303;DHT22;6214;48.012;7.862;2023-12-20T12:43:58;8.10;99.90
12303;DHT22;6214;48.012;7.862;2023-12-20T12:46:37;8.10;99.90
12303;DHT22;6214;48.012;7.862;2023-12-20T12:49:04;8.20;99.90
12303;DHT22;6214;48.012;7.862;2023-12-20T12:51:31;8.50;99.90
12303;DHT22;6214;48.012;7.862;2023-12-20T12:53:58;8.40;99.90
12303;DHT22;6214;48.012;7.862;2023-12-20T12:56:25;8.20;99.90
12303;DHT22;6214;48.012;7.862;2023-12-20T12:58:51;8.10;99.90
12303;DHT22;6214;48.012;7.862;2023-12-20T13:01:18;8.00;99.90
12303;DHT22;6214;48.012;7.862;2023-12-20T13:03:45;7.90;99.90
12303;DHT22;6214;48.012;7.862;2023-12-20T13:06:12;7.80;99.90
12303;DHT22;6214;48.012;7.862;2023-12-20T13:08:39;7.90;99.90
12303;DHT22;6214;48.012;7.862;2023-12-20T13:11:06;7.80;99.90
12303;DHT22;6214;48.012;7.862;2023-12-20T13:13:33;8.00;99.90
12303;DHT22;6214;48.012;7.862;2023-12-20T13:16:00;8.00;99.90
12303;DHT22;6214;48.012;7.862;2023-12-20T13:18:27;7.90;99.90
12303;DHT22;6214;48.012;7.862;2023-12-20T13:20:55;7.80;99.90
12303;DHT22;6214;48.012;7.862;2023-12-20T13:23:22;7.80;99.90
12303;DHT22;6214;48.012;7.862;2023-12-20T13:25:49;7.70;99.90
12303;DHT22;6214;48.012;7.862;2023-12-20T13:28:16;7.80;99.90
12303;DHT22;6214;48.012;7.862;2023-12-20T13:30:43;7.50;99.90
12303;DHT22;6214;48.012;7.862;2023-12-20T13:33:11;7.60;99.90
12303;DHT22;6214;48.012;7.862;2023-12-20T13:35:38;7.60;99.90
12303;DHT22;6214;48.012;7.862;2023-12-20T13:38:05;7.60;99.90
12303;DHT22;6214;48.012;7.862;2023-12-20T13:40:32;7.50;99.90
12303;DHT22;6214;48.012;7.862;2023-12-20T13:42:59;7.70;99.90
12303;DHT22;6214;48.012;7.862;2023-12-20T13:45:26;7.80;99.90
12303;DHT22;6214;48.012;7.862;2023-12-20T13:47:53;7.60;99.90
12303;DHT22;6214;48.012;7.862;2023-12-20T13:50:20;7.60;99.90
12303;DHT22;6214;48.012;7.862;2023-12-20T13:52:47;7.60;99.90
12303;DHT22;6214;48.012;7.862;2023-12-20T13:55:14;7.60;99.90
12303;DHT22;6214;48.012;7.862;2023-12-20T13:57:41;7.70;99.90
12303;DHT22;6214;48.012;7.862;2023-12-20T14:00:21;7.70;99.90
12303;DHT22;6214;48.012;7.862;2023-12-20T14:02:48;7.70;99.90
12303;DHT22;6214;48.012;7.862;2023-12-20T14:05:16;7.60;99.90
12303;DHT22;6214;48.012;7.862;2023-12-20T14:07:45;7.60;99.90
12303;DHT22;6214;48.012;7.862;2023-12-20T14:10:13;7.50;99.90
12303;DHT22;6214;48.012;7.862;2023-12-20T14:12:40;7.50;99.90
12303;DHT22;6214;48.012;7.862;2023-12-20T14:15:07;7.50;99.90
12303;DHT22;6214;48.012;7.862;2023-12-20T14:17:40;7.60;99.90
12303;DHT22;6214;48.012;7.862;2023-12-20T14:20:09;7.60;99.90
12303;DHT22;6214;48.012;7.862;2023-12-20T14:22:36;7.50;99.90
12303;DHT22;6214;48.012;7.862;2023-12-20T14:25:05;7.50;99.90
12303;DHT22;6214;48.012;7.862;2023-12-20T14:27:33;7.60;99.90
12303;DHT22;6214;48.012;7.862;2023-12-20T14:30:00;7.50;99.90
12303;DHT22;6214;48.012;7.862;2023-12-20T14:32:27;7.30;99.90
12303;DHT22;6214;48.012;7.862;2023-12-20T14:34:54;7.30;99.90
12303;DHT22;6214;48.012;7.862;2023-12-20T14:37:22;7.30;99.90
12303;DHT22;6214;48.012;7.862;2023-12-20T14:39:49;7.40;99.90
12303;DHT22;6214;48.012;7.862;2023-12-20T14:42:16;7.30;99.90
12303;DHT22;6214;48.012;7.862;2023-12-20T14:44:43;7.30;99.90
12303;DHT22;6214;48.012;7.862;2023-12-20T14:47:10;7.30;99.90
12303;DHT22;6214;48.012;7.862;2023-12-20T14:49:37;7.30;99.90
12303;DHT22;6214;48.012;7.862;2023-12-20T14:52:05;7.20;99.90
12303;DHT22;6214;48.012;7.862;2023-12-20T14:54:32;7.20;99.90
12303;DHT22;6214;48.012;7.862;2023-12-20T14:56:59;7.10;99.90
12303;DHT22;6214;48.012;7.862;2023-12-20T14:59:31;7.10;99.90
12303;DHT22;6214;48.012;7.862;2023-12-20T15:01:58;7.10;99.90
12303;DHT22;6214;48.012;7.862;2023-12-20T15:04:25;7.00;99.90
12303;DHT22;6214;48.012;7.862;2023-12-20T15:06:55;7.00;99.90
12303;DHT22;6214;48.012;7.862;2023-12-20T15:09:23;7.00;99.90
12303;DHT22;6214;48.012;7.862;2023-12-20T15:11:50;7.00;99.90
12303;DHT22;6214;48.012;7.862;2023-12-20T15:14:17;7.00;99.90
12303;DHT22;6214;48.012;7.862;2023-12-20T15:16:46;6.90;99.90
12303;DHT22;6214;48.012;7.862;2023-12-20T15:19:16;6.90;99.90
12303;DHT22;6214;48.012;7.862;2023-12-20T15:21:43;6.80;99.90
12303;DHT22;6214;48.012;7.862;2023-12-20T15:24:14;6.90;99.90
12303;DHT22;6214;48.012;7.862;2023-12-20T15:26:43;6.80;99.90
12303;DHT22;6214;48.012;7.862;2023-12-20T15:29:10;6.70;99.90
12303;DHT22;6214;48.012;7.862;2023-12-20T15:31:46;6.70;99.90
12303;DHT22;6214;48.012;7.862;2023-12-20T15:34:13;6.60;99.90
12303;DHT22;6214;48.012;7.862;2023-12-20T15:36:42;6.50;99.90
12303;DHT22;6214;48.012;7.862;2023-12-20T15:39:09;6.50;99.90
12303;DHT22;6214;48.012;7.862;2023-12-20T15:41:36;6.40;99.90
12303;DHT22;6214;48.012;7.862;2023-12-20T15:44:03;6.40;99.90
12303;DHT22;6214;48.012;7.862;2023-12-20T15:46:30;6.40;99.90
12303;DHT22;6214;48.012;7.862;2023-12-20T15:48:56;6.30;99.90
12303;DHT22;6214;48.012;7.862;2023-12-20T15:51:23;6.30;99.90
12303;DHT22;6214;48.012;7.862;2023-12-20T15:53:51;6.30;99.90
12303;DHT22;6214;48.012;7.862;2023-12-20T15:56:18;6.40;99.90
12303;DHT22;6214;48.012;7.862;2023-12-20T15:58:45;6.30;99.90
12303;DHT22;6214;48.012;7.862;2023-12-20T16:01:14;6.20;99.90
12303;DHT22;6214;48.012;7.862;2023-12-20T16:03:42;6.20;99.90
12303;DHT22;6214;48.012;7.862;2023-12-20T16:06:19;6.20;99.90
12303;DHT22;6214;48.012;7.862;2023-12-20T16:08:48;6.20;99.90
12303;DHT22;6214;48.012;7.862;2023-12-20T16:11:15;6.10;99.90